Weather at Panevėžys Istra Airfield

Public forecast

Using degrees Celsius for public forecast. Weather courtesy of forecast.io.

Closest aviation weather report (METAR) to Panevėžys Istra Airfield

Closest report is Šiauliai International Airport, 32.7 nm (60.6 km) W.

2024/06/23 21:20 (retrieved 32 minutes ago)

EYSA 232120Z 32002KT 9999 OVC016 15/13 Q1011 NOSIG

Closest aviation forecast (TAF) to Panevėžys Istra Airfield

Forecast is more than 12 hours old.

Closest forecast is Šiauliai International Airport, 32.7 nm (60.6 km) W.

2024/06/22 09:06 (retrieved 2 days ago)

TAF TAF EYSA 220803Z 2209/2221 11010KT 9000 BKN045 TEMPO 2209/2215 BKN030CB TEMPO 2215/2218 TSRA SCT010 BKN030CB